createdAt,value
2019-01-28T00:01:12.632Z,6.77
2019-01-28T00:03:43.333Z,7.33
2019-01-28T00:06:12.868Z,6.37
2019-01-28T00:08:42.606Z,7.17
2019-01-28T00:11:12.093Z,6.73
2019-01-28T00:13:41.520Z,6.97
2019-01-28T00:16:10.945Z,7.77
2019-01-28T00:18:40.391Z,7.17
2019-01-28T00:21:09.792Z,6.13
2019-01-28T00:23:39.448Z,6.50
2019-01-28T00:26:08.884Z,6.80
2019-01-28T00:28:38.361Z,6.73
2019-01-28T00:31:08.544Z,6.87
2019-01-28T00:33:38.413Z,6.67
2019-01-28T00:36:08.272Z,7.13
2019-01-28T00:38:37.667Z,6.80
2019-01-28T00:41:07.141Z,7.37
2019-01-28T00:43:36.593Z,7.23
2019-01-28T00:46:06.409Z,7.23
2019-01-28T00:48:35.852Z,7.17
2019-01-28T00:51:05.367Z,8.10
2019-01-28T00:53:35.078Z,7.67
2019-01-28T00:56:04.534Z,7.77
2019-01-28T00:58:34.187Z,7.67
2019-01-28T01:01:03.644Z,7.60
2019-01-28T01:03:52.109Z,8.20
2019-01-28T01:06:21.524Z,7.10
2019-01-28T01:08:51.044Z,7.60
2019-01-28T01:11:20.458Z,7.90
2019-01-28T01:13:49.820Z,8.00
2019-01-28T01:16:19.264Z,7.40
2019-01-28T01:18:48.899Z,7.27
2019-01-28T01:21:18.262Z,7.50
2019-01-28T01:23:47.886Z,8.77
2019-01-28T01:26:17.716Z,7.80
2019-01-28T01:28:47.078Z,8.07
2019-01-28T01:31:16.491Z,8.10
2019-01-28T01:33:45.944Z,7.70
2019-01-28T01:36:15.298Z,7.77
2019-01-28T01:38:44.858Z,8.20
2019-01-28T01:41:14.302Z,8.13
2019-01-28T01:43:43.769Z,7.73
2019-01-28T01:46:13.274Z,8.17
2019-01-28T01:48:42.731Z,8.33
2019-01-28T01:51:12.240Z,8.00
2019-01-28T01:53:41.845Z,8.17
2019-01-28T01:56:11.206Z,7.97
2019-01-28T01:58:40.618Z,8.27
2019-01-28T02:01:09.972Z,7.70
2019-01-28T02:03:39.321Z,8.50
2019-01-28T02:06:08.991Z,8.03
2019-01-28T02:08:38.362Z,9.03
2019-01-28T02:11:07.808Z,7.83
2019-01-28T02:13:37.238Z,8.57
2019-01-28T02:16:06.612Z,8.27
2019-01-28T02:18:36.368Z,8.13
2019-01-28T02:21:06.191Z,8.90
2019-01-28T02:23:35.573Z,8.93
2019-01-28T02:26:05.356Z,9.27
2019-01-28T02:28:34.688Z,10.10
2019-01-28T02:31:16.052Z,9.40
2019-01-28T02:33:45.874Z,9.60
2019-01-28T02:36:15.256Z,9.90
2019-01-28T02:38:44.578Z,9.70
2019-01-28T02:41:14.045Z,9.47
2019-01-28T02:43:43.474Z,9.47
2019-01-28T02:46:13.292Z,9.17
2019-01-28T02:48:42.832Z,9.47
2019-01-28T02:51:12.272Z,9.63
2019-01-28T02:53:41.758Z,10.47
2019-01-28T02:56:11.364Z,9.53
2019-01-28T02:58:40.754Z,8.57
2019-01-28T03:01:10.171Z,9.70
2019-01-28T03:03:39.979Z,10.03
2019-01-28T03:06:09.726Z,9.97
2019-01-28T03:08:39.144Z,9.47
2019-01-28T03:11:10.474Z,9.83
2019-01-28T03:13:39.928Z,9.80
2019-01-28T03:16:09.351Z,9.70
2019-01-28T03:18:39.100Z,9.27
2019-01-28T03:21:08.666Z,9.70
2019-01-28T03:23:38.090Z,9.43
2019-01-28T03:26:07.442Z,9.50
2019-01-28T03:28:36.918Z,9.40
2019-01-28T03:31:06.398Z,9.50
2019-01-28T03:33:36.252Z,9.63
2019-01-28T03:36:05.696Z,8.87
2019-01-28T03:38:35.324Z,9.30
2019-01-28T03:41:04.794Z,8.83
2019-01-28T03:43:34.234Z,9.27
2019-01-28T03:46:03.657Z,9.13
2019-01-28T03:48:33.030Z,8.97
2019-01-28T03:51:02.475Z,9.33
2019-01-28T03:53:31.992Z,9.60
2019-01-28T03:56:01.430Z,9.73
2019-01-28T03:58:30.859Z,9.87
2019-01-28T04:01:00.320Z,9.10
2019-01-28T04:03:29.760Z,9.33
2019-01-28T04:05:59.159Z,9.93
2019-01-28T04:08:28.681Z,10.20
2019-01-28T04:10:58.006Z,9.37
2019-01-28T04:13:27.812Z,9.37
2019-01-28T04:15:57.209Z,9.27
2019-01-28T04:18:26.629Z,8.77
2019-01-28T04:20:56.056Z,10.23
2019-01-28T04:23:25.956Z,9.80
2019-01-28T04:25:55.589Z,9.70
2019-01-28T04:28:25.415Z,9.50
2019-01-28T04:30:54.889Z,9.27
2019-01-28T04:33:24.326Z,9.53
2019-01-28T04:35:53.791Z,9.07
2019-01-28T04:38:23.330Z,9.27
2019-01-28T04:40:52.776Z,9.87
2019-01-28T04:43:22.257Z,9.83
2019-01-28T04:45:51.803Z,9.47
2019-01-28T04:48:21.260Z,9.63
2019-01-28T04:50:50.907Z,9.57
2019-01-28T04:53:20.527Z,9.53
2019-01-28T04:55:50.297Z,9.10
2019-01-28T04:58:19.687Z,8.93
2019-01-28T05:00:49.099Z,8.60
2019-01-28T05:03:19.026Z,8.57
2019-01-28T05:05:48.525Z,8.50
2019-01-28T05:08:17.935Z,9.37
2019-01-28T05:10:47.359Z,9.10
2019-01-28T05:13:21.473Z,9.07
2019-01-28T05:15:51.367Z,8.67
2019-01-28T05:18:20.779Z,9.13
2019-01-28T05:20:50.202Z,8.80
2019-01-28T05:23:19.609Z,8.77
2019-01-28T05:25:49.035Z,8.63
2019-01-28T05:28:18.454Z,8.83
2019-01-28T05:30:47.926Z,8.53
2019-01-28T05:33:17.357Z,8.87
2019-01-28T05:35:46.789Z,9.30
2019-01-28T05:38:16.215Z,8.77
2019-01-28T05:40:45.639Z,8.90
2019-01-28T05:43:15.101Z,8.40
2019-01-28T05:45:44.871Z,7.80
2019-01-28T05:48:14.459Z,8.57
2019-01-28T05:50:44.114Z,8.27
2019-01-28T05:53:13.569Z,9.10
2019-01-28T05:55:42.969Z,8.83
2019-01-28T05:58:12.429Z,8.87
2019-01-28T06:00:44.357Z,9.07
2019-01-28T06:03:13.773Z,7.93
2019-01-28T06:05:43.338Z,7.57
2019-01-28T06:08:12.769Z,8.83
2019-01-28T06:10:42.552Z,8.50
2019-01-28T06:13:11.969Z,8.37
2019-01-28T06:15:41.400Z,8.60
2019-01-28T06:18:10.845Z,8.63
2019-01-28T06:20:40.474Z,8.97
2019-01-28T06:23:09.953Z,8.67
2019-01-28T06:25:39.343Z,9.67
2019-01-28T06:28:08.876Z,9.00
2019-01-28T06:30:39.331Z,9.67
2019-01-28T06:33:08.891Z,8.77
2019-01-28T06:35:38.418Z,10.23
2019-01-28T06:38:07.840Z,8.83
2019-01-28T06:40:37.544Z,8.97
2019-01-28T06:43:07.219Z,9.47
2019-01-28T06:45:36.631Z,9.27
2019-01-28T06:48:06.717Z,9.67
2019-01-28T06:50:36.319Z,10.13
2019-01-28T06:53:06.169Z,9.50
2019-01-28T06:55:35.689Z,10.17
2019-01-28T06:58:05.370Z,10.47
2019-01-28T07:00:36.323Z,10.53
2019-01-28T07:03:07.693Z,10.80
2019-01-28T07:05:37.301Z,10.13
2019-01-28T07:08:07.153Z,10.43
2019-01-28T07:10:36.559Z,10.67
2019-01-28T07:13:05.931Z,11.53
2019-01-28T07:15:35.463Z,11.30
2019-01-28T07:18:05.023Z,10.37
2019-01-28T07:20:34.500Z,10.83
2019-01-28T07:23:03.936Z,10.03
2019-01-28T07:25:33.387Z,10.47
2019-01-28T07:28:02.819Z,9.87
2019-01-28T07:30:37.528Z,9.40
2019-01-28T07:33:07.313Z,8.57
2019-01-28T07:35:36.821Z,8.93
2019-01-28T07:38:06.449Z,8.27
2019-01-28T07:40:36.265Z,8.37
2019-01-28T07:43:05.685Z,8.20
2019-01-28T07:45:44.643Z,8.30
2019-01-28T07:48:08.319Z,7.97
2019-01-28T07:50:37.891Z,7.97
2019-01-28T07:53:07.569Z,8.60
2019-01-28T07:55:37.111Z,8.00
2019-01-28T07:58:06.944Z,7.77
2019-01-28T08:00:36.592Z,7.63
2019-01-28T08:03:06.638Z,8.20
2019-01-28T08:05:36.123Z,7.50
2019-01-28T08:08:06.061Z,7.70
2019-01-28T08:10:36.037Z,7.47
2019-01-28T08:13:06.267Z,8.83
2019-01-28T08:15:35.726Z,8.40
2019-01-28T08:18:10.527Z,8.30
2019-01-28T08:20:36.679Z,7.93
2019-01-28T08:23:06.525Z,8.07
2019-01-28T08:25:36.318Z,7.87
2019-01-28T08:28:05.892Z,7.90
2019-01-28T08:30:37.553Z,7.13
2019-01-28T08:33:07.253Z,6.50
2019-01-28T08:35:38.561Z,7.47
2019-01-28T08:38:08.147Z,7.20
2019-01-28T08:40:37.566Z,6.87
2019-01-28T08:43:07.017Z,7.40
2019-01-28T08:45:36.704Z,8.00
2019-01-28T08:48:06.191Z,7.83
2019-01-28T08:50:35.733Z,7.97
2019-01-28T08:53:05.525Z,8.23
2019-01-28T08:55:35.213Z,8.80
2019-01-28T08:58:04.951Z,8.87
2019-01-28T09:00:36.746Z,9.67
2019-01-28T09:03:06.165Z,10.17
2019-01-28T09:05:35.840Z,8.80
2019-01-28T09:08:06.673Z,8.93
2019-01-28T09:10:36.359Z,7.43
2019-01-28T09:13:06.432Z,7.63
2019-01-28T09:15:36.369Z,8.70
2019-01-28T09:18:07.661Z,8.00
2019-01-28T09:20:37.345Z,9.17
2019-01-28T09:23:06.713Z,8.90
2019-01-28T09:25:36.279Z,9.10
2019-01-28T09:28:08.399Z,9.60
2019-01-28T09:30:38.336Z,9.23
2019-01-28T09:33:07.775Z,9.57
2019-01-28T09:35:37.228Z,9.10
2019-01-28T09:38:07.648Z,9.10
2019-01-28T09:40:37.503Z,8.67
2019-01-28T09:43:07.846Z,8.00
2019-01-28T09:45:42.050Z,8.93
2019-01-28T09:48:34.396Z,8.10
2019-01-28T09:51:04.059Z,7.73
2019-01-28T09:53:33.489Z,9.27
2019-01-28T09:56:02.943Z,8.97
2019-01-28T09:58:32.414Z,8.90
2019-01-28T10:01:02.271Z,10.37
2019-01-28T10:03:31.748Z,9.87
2019-01-28T10:06:01.201Z,10.50
2019-01-28T10:08:30.922Z,10.93
2019-01-28T10:11:00.514Z,12.07
2019-01-28T10:13:29.933Z,10.17
2019-01-28T10:15:59.353Z,10.00
2019-01-28T10:18:28.793Z,10.93
2019-01-28T10:20:58.183Z,11.40
2019-01-28T10:23:27.801Z,10.80
2019-01-28T10:25:57.843Z,11.03
2019-01-28T10:28:27.493Z,10.17
2019-01-28T10:30:56.909Z,8.73
2019-01-28T10:33:26.322Z,10.30
2019-01-28T10:35:56.170Z,10.00
2019-01-28T10:38:25.913Z,10.63
2019-01-28T10:40:55.261Z,10.90
2019-01-28T10:43:24.718Z,11.27
2019-01-28T10:45:54.063Z,10.83
2019-01-28T10:48:23.524Z,12.27
2019-01-28T10:50:52.899Z,11.27
2019-01-28T10:53:22.573Z,12.70
2019-01-28T10:55:52.162Z,13.07
2019-01-28T10:58:21.589Z,13.13
2019-01-28T11:00:52.014Z,12.93
2019-01-28T11:03:23.941Z,13.43
2019-01-28T11:05:54.009Z,13.07
2019-01-28T11:08:23.487Z,14.37
2019-01-28T11:10:52.902Z,15.17
2019-01-28T11:13:22.681Z,13.43
2019-01-28T11:15:52.130Z,14.90
2019-01-28T11:18:27.366Z,14.27
2019-01-28T11:20:57.363Z,15.87
2019-01-28T11:23:27.470Z,14.63
2019-01-28T11:25:56.906Z,16.17
2019-01-28T11:28:26.488Z,15.03
2019-01-28T11:31:00.089Z,15.27
2019-01-28T11:33:29.595Z,15.37
2019-01-28T11:36:05.091Z,16.07
2019-01-28T11:38:30.677Z,15.60
2019-01-28T11:41:00.219Z,14.67
2019-01-28T11:43:29.664Z,15.17
2019-01-28T11:46:01.415Z,14.27
2019-01-28T11:48:32.768Z,15.27
2019-01-28T11:51:02.205Z,15.13
2019-01-28T11:53:32.294Z,15.77
2019-01-28T11:56:02.066Z,15.53
2019-01-28T11:58:31.505Z,14.30
2019-01-28T12:01:27.426Z,14.03
2019-01-28T12:03:56.874Z,15.07
2019-01-28T12:06:26.694Z,13.90
2019-01-28T12:08:56.128Z,13.57
2019-01-28T12:11:25.830Z,12.70
2019-01-28T12:13:55.346Z,12.40
2019-01-28T12:16:24.701Z,12.67
2019-01-28T12:18:54.198Z,12.20
2019-01-28T12:21:24.043Z,12.27
2019-01-28T12:23:53.502Z,12.03
2019-01-28T12:26:23.038Z,12.47
2019-01-28T12:28:52.875Z,12.17
2019-01-28T12:31:22.596Z,11.90
2019-01-28T12:33:52.382Z,12.97
2019-01-28T12:36:21.910Z,11.93
2019-01-28T12:38:51.366Z,11.97
2019-01-28T12:41:20.888Z,10.77
2019-01-28T12:43:50.643Z,11.70
2019-01-28T12:46:20.304Z,10.93
2019-01-28T12:48:50.169Z,10.80
2019-01-28T12:51:19.733Z,10.90
2019-01-28T12:53:49.218Z,10.20
2019-01-28T12:56:18.720Z,10.33
2019-01-28T12:58:49.946Z,10.67
2019-01-28T13:01:19.373Z,10.43
2019-01-28T13:03:48.890Z,9.73
2019-01-28T13:06:18.748Z,10.20
2019-01-28T13:08:48.512Z,9.60
2019-01-28T13:11:17.874Z,4.60
2019-01-28T13:13:47.316Z,3.30
2019-01-28T13:16:16.726Z,2.37
2019-01-28T13:18:46.122Z,1.90
2019-01-28T13:21:15.556Z,2.00
2019-01-28T13:23:45.350Z,1.60
2019-01-28T13:26:14.772Z,1.33
2019-01-28T13:28:44.338Z,0.80
2019-01-28T13:31:13.738Z,0.57
2019-01-28T13:33:43.560Z,0.73
2019-01-28T13:36:13.010Z,0.73
2019-01-28T13:38:42.529Z,0.97
2019-01-28T13:41:12.362Z,1.20
2019-01-28T13:43:41.812Z,0.90
2019-01-28T13:46:11.245Z,1.30
2019-01-28T13:48:40.720Z,1.27
2019-01-28T13:51:10.267Z,1.43
2019-01-28T13:53:39.680Z,1.40
2019-01-28T13:56:09.100Z,1.30
2019-01-28T13:58:57.625Z,1.83
2019-01-28T14:01:27.551Z,1.90
2019-01-28T14:03:58.598Z,1.83
2019-01-28T14:06:28.148Z,2.63
2019-01-28T14:08:58.020Z,2.17
2019-01-28T14:11:27.741Z,3.00
2019-01-28T14:13:57.182Z,2.37
2019-01-28T14:16:26.783Z,2.10
2019-01-28T14:18:56.228Z,1.90
2019-01-28T14:21:25.718Z,2.70
2019-01-28T14:23:55.325Z,2.03
2019-01-28T14:26:24.777Z,3.17
2019-01-28T14:28:54.104Z,2.47
2019-01-28T14:31:23.576Z,2.40
2019-01-28T14:33:52.996Z,2.07
2019-01-28T14:36:22.422Z,1.97
2019-01-28T14:38:52.033Z,2.40
2019-01-28T14:41:21.778Z,2.60
2019-01-28T14:43:51.182Z,2.93
2019-01-28T14:46:20.982Z,3.27
2019-01-28T14:48:50.353Z,2.67
2019-01-28T14:51:19.750Z,2.37
2019-01-28T14:53:49.529Z,2.90
2019-01-28T14:56:19.027Z,2.37
2019-01-28T14:58:48.434Z,3.23
2019-01-28T15:01:17.890Z,2.60
2019-01-28T15:03:48.291Z,3.43
2019-01-28T15:06:17.816Z,2.87
2019-01-28T15:08:47.372Z,3.30
2019-01-28T15:11:16.726Z,3.73
2019-01-28T15:13:46.190Z,3.12
2019-01-28T15:16:15.524Z,2.87
2019-01-28T15:18:45.067Z,2.90
2019-01-28T15:21:14.601Z,3.47
2019-01-28T15:23:44.089Z,3.30
2019-01-28T15:26:13.529Z,3.27
2019-01-28T15:28:43.088Z,3.30
2019-01-28T15:31:13.719Z,2.83
2019-01-28T15:33:43.181Z,2.87
2019-01-28T15:36:12.711Z,2.93
2019-01-28T15:38:42.100Z,3.27
2019-01-28T15:41:11.582Z,2.80
2019-01-28T15:43:40.997Z,2.97
2019-01-28T15:46:10.458Z,3.00
2019-01-28T15:48:39.982Z,2.77
2019-01-28T15:51:09.436Z,3.00
2019-01-28T15:53:39.278Z,2.90
2019-01-28T15:56:08.624Z,2.60
2019-01-28T15:58:38.065Z,2.90
2019-01-28T16:01:07.986Z,2.77
2019-01-28T16:03:37.500Z,2.70
2019-01-28T16:06:06.879Z,2.40
2019-01-28T16:08:36.358Z,2.87
2019-01-28T16:11:06.243Z,2.83
2019-01-28T16:13:35.902Z,2.70
2019-01-28T16:16:05.623Z,2.80
2019-01-28T16:18:35.546Z,2.87
2019-01-28T16:21:07.226Z,3.10
2019-01-28T16:23:36.530Z,3.23
2019-01-28T16:26:06.864Z,3.00
2019-01-28T16:28:36.292Z,3.60
2019-01-28T16:31:06.159Z,3.00
2019-01-28T16:33:35.760Z,3.50
2019-01-28T16:36:06.092Z,3.23
2019-01-28T16:38:35.474Z,3.63
2019-01-28T16:41:06.230Z,3.70
2019-01-28T16:43:36.032Z,3.70
2019-01-28T16:46:05.559Z,4.50
2019-01-28T16:48:35.216Z,3.80
2019-01-28T16:51:06.031Z,4.37
2019-01-28T16:53:35.502Z,4.30
2019-01-28T16:56:05.402Z,4.90
2019-01-28T16:58:36.201Z,4.80
2019-01-28T17:01:05.982Z,5.43
2019-01-28T17:03:35.394Z,4.57
2019-01-28T17:06:05.531Z,4.97
2019-01-28T17:08:34.959Z,5.83
2019-01-28T17:11:04.512Z,4.80
2019-01-28T17:13:33.974Z,5.40
2019-01-28T17:16:03.499Z,5.57
2019-01-28T17:18:32.930Z,5.70
2019-01-28T17:21:02.384Z,5.20
2019-01-28T17:23:31.824Z,6.60
2019-01-28T17:26:01.242Z,6.13
2019-01-28T17:28:30.732Z,6.87
2019-01-28T17:31:00.281Z,7.70
2019-01-28T17:33:30.034Z,6.40
2019-01-28T17:35:59.430Z,4.60
2019-01-28T17:38:28.897Z,6.47
2019-01-28T17:40:58.328Z,7.40
2019-01-28T17:43:27.753Z,5.70
2019-01-28T17:45:57.205Z,6.20
2019-01-28T17:48:26.602Z,5.83
2019-01-28T17:50:55.961Z,5.73
2019-01-28T17:53:25.403Z,5.57
2019-01-28T17:55:54.908Z,6.60
2019-01-28T17:58:24.340Z,5.77
2019-01-28T18:00:56.192Z,4.90
2019-01-28T18:03:25.796Z,6.53
2019-01-28T18:05:55.570Z,5.07
2019-01-28T18:08:25.086Z,4.73
2019-01-28T18:10:54.911Z,8.87
2019-01-28T18:13:24.353Z,9.83
2019-01-28T18:15:53.817Z,7.23
2019-01-28T18:18:23.515Z,5.80
2019-01-28T18:20:53.314Z,4.40
2019-01-28T18:23:42.178Z,3.73
2019-01-28T18:26:11.676Z,3.90
2019-01-28T18:28:41.106Z,4.50
2019-01-28T18:31:10.568Z,4.33
2019-01-28T18:33:40.113Z,3.90
2019-01-28T18:36:09.730Z,4.33
2019-01-28T18:38:39.117Z,3.60
2019-01-28T18:41:08.598Z,3.33
2019-01-28T18:43:38.033Z,3.60
2019-01-28T18:46:07.455Z,3.47
2019-01-28T18:48:36.863Z,3.40
2019-01-28T18:51:06.496Z,3.67
2019-01-28T18:53:36.228Z,3.37
2019-01-28T18:56:06.700Z,2.87
2019-01-28T18:58:36.183Z,3.30
2019-01-28T19:01:06.233Z,2.83
2019-01-28T19:03:36.091Z,3.00
2019-01-28T19:06:22.921Z,3.67
2019-01-28T19:09:26.724Z,3.13
2019-01-28T19:12:18.857Z,2.70
2019-01-28T19:14:59.802Z,3.17
2019-01-28T19:17:41.937Z,3.17
2019-01-28T19:20:46.165Z,3.63
2019-01-28T19:23:15.586Z,3.00
2019-01-28T19:25:45.136Z,3.10
2019-01-28T19:28:14.673Z,3.57
2019-01-28T19:30:44.313Z,2.97
2019-01-28T19:33:13.822Z,3.50
2019-01-28T19:35:43.267Z,3.10
2019-01-28T19:38:12.762Z,3.43
2019-01-28T19:40:42.216Z,3.30
2019-01-28T19:43:11.609Z,4.77
2019-01-28T19:45:41.378Z,4.33
2019-01-28T19:48:11.211Z,3.90
2019-01-28T19:50:40.630Z,4.40
2019-01-28T19:53:10.218Z,4.33
2019-01-28T19:55:39.727Z,4.30
2019-01-28T19:58:09.327Z,3.80
2019-01-28T20:00:38.973Z,4.10
2019-01-28T20:03:10.193Z,4.97
2019-01-28T20:05:39.675Z,4.27
2019-01-28T20:08:09.141Z,4.30
2019-01-28T20:10:38.960Z,4.20
2019-01-28T20:13:08.411Z,3.90
2019-01-28T20:15:37.889Z,4.03
2019-01-28T20:18:07.468Z,3.80
2019-01-28T20:20:37.002Z,4.17
2019-01-28T20:23:06.480Z,4.97
2019-01-28T20:25:36.129Z,4.77
2019-01-28T20:28:05.872Z,4.13
2019-01-28T20:30:35.221Z,3.87
2019-01-28T20:33:04.895Z,4.40
2019-01-28T20:35:34.352Z,3.87
2019-01-28T20:38:03.884Z,4.30
2019-01-28T20:40:33.309Z,3.40
2019-01-28T20:43:02.915Z,3.90
2019-01-28T20:45:32.466Z,4.17
2019-01-28T20:48:01.924Z,3.57
2019-01-28T20:50:31.785Z,4.17
2019-01-28T20:53:01.261Z,4.60
2019-01-28T20:55:30.782Z,4.57
2019-01-28T20:58:00.169Z,4.00
2019-01-28T21:00:29.768Z,4.97
2019-01-28T21:02:59.411Z,3.93
2019-01-28T21:05:28.839Z,4.23
2019-01-28T21:07:58.749Z,5.33
2019-01-28T21:10:28.656Z,4.57
2019-01-28T21:12:58.070Z,4.30
2019-01-28T21:15:27.587Z,3.73
2019-01-28T21:17:57.017Z,5.30
2019-01-28T21:20:33.308Z,3.93
2019-01-28T21:23:03.049Z,4.20
2019-01-28T21:25:32.530Z,4.00
2019-01-28T21:28:01.938Z,4.20
2019-01-28T21:30:34.226Z,3.97
2019-01-28T21:33:03.867Z,5.03
2019-01-28T21:36:04.222Z,5.13
2019-01-28T21:38:40.925Z,4.63
2019-01-28T21:41:10.722Z,5.27
2019-01-28T21:43:40.190Z,5.17
2019-01-28T21:46:09.601Z,5.63
2019-01-28T21:48:39.009Z,4.30
2019-01-28T21:51:08.488Z,4.47
2019-01-28T21:53:38.251Z,4.60
2019-01-28T21:56:07.681Z,4.93
2019-01-28T21:58:37.109Z,4.63
2019-01-28T22:01:08.430Z,3.80
2019-01-28T22:03:37.858Z,3.50
2019-01-28T22:06:07.401Z,4.03
2019-01-28T22:08:36.884Z,3.63
2019-01-28T22:11:06.315Z,3.37
2019-01-28T22:13:35.857Z,3.97
2019-01-28T22:16:05.473Z,3.77
2019-01-28T22:18:34.921Z,3.40
2019-01-28T22:21:09.056Z,3.40
2019-01-28T22:23:39.285Z,3.40
2019-01-28T22:26:08.693Z,3.60
2019-01-28T22:28:38.063Z,3.63
2019-01-28T22:31:07.473Z,4.17
2019-01-28T22:33:37.001Z,3.63
2019-01-28T22:36:07.627Z,3.90
2019-01-28T22:38:37.058Z,3.97
2019-01-28T22:41:06.564Z,3.60
2019-01-28T22:43:36.114Z,3.40
2019-01-28T22:46:05.948Z,2.97
2019-01-28T22:48:35.365Z,3.20
2019-01-28T22:51:04.720Z,3.10
2019-01-28T22:53:34.137Z,3.23
2019-01-28T22:56:03.562Z,3.20
2019-01-28T22:58:33.404Z,3.07
2019-01-28T23:01:31.600Z,3.47
2019-01-28T23:04:01.126Z,3.20
2019-01-28T23:06:30.575Z,3.03
2019-01-28T23:09:00.127Z,2.67
2019-01-28T23:11:29.540Z,2.77
2019-01-28T23:13:58.965Z,3.13
2019-01-28T23:16:28.390Z,2.80
2019-01-28T23:18:57.820Z,3.13
2019-01-28T23:21:27.170Z,2.80
2019-01-28T23:23:56.610Z,2.73
2019-01-28T23:26:26.045Z,2.30
2019-01-28T23:28:55.441Z,2.83
2019-01-28T23:31:24.796Z,2.67
2019-01-28T23:33:54.164Z,2.07
2019-01-28T23:36:24.024Z,2.60
2019-01-28T23:38:53.430Z,1.97
2019-01-28T23:41:22.789Z,2.20
2019-01-28T23:43:52.299Z,3.10
2019-01-28T23:46:21.770Z,2.30
2019-01-28T23:48:51.162Z,2.23
2019-01-28T23:51:20.666Z,2.53
2019-01-28T23:53:50.079Z,2.10
2019-01-28T23:56:19.528Z,1.97
2019-01-28T23:58:48.957Z,2.27
